Time;durP1;ratioP1;P1;durP2;ratioP2;P2;SDS_P1;SDS_P2;PMS_P1;PMS_P2;Temp;Humidity;BMP_temperature;BMP_pressure;BME280_temperature;BME280_humidity;BME280_pressure;Samples;Min_cycle;Max_cycle;Signal;HPM_P1;HPM_P2
2023/04/26 00:02:17;;;;;;;1.13;0.90;;;18.50;44.00;;;;;;5026749;28;20227;-59
2023/04/26 00:04:43;;;;;;;1.00;0.90;;;18.50;44.00;;;;;;5028530;28;20304;-62
2023/04/26 00:07:08;;;;;;;0.90;0.90;;;18.50;44.00;;;;;;5028777;28;20664;-59
2023/04/26 00:09:34;;;;;;;2.10;0.93;;;18.50;43.90;;;;;;5032719;28;20230;-65
2023/04/26 00:12:00;;;;;;;1.03;0.97;;;18.50;44.00;;;;;;5029761;28;20230;-63
2023/04/26 00:14:25;;;;;;;1.07;0.97;;;18.50;43.90;;;;;;5025112;28;20230;-63
2023/04/26 00:16:51;;;;;;;1.20;1.10;;;18.50;43.90;;;;;;5033022;28;20218;-61
2023/04/26 00:19:17;;;;;;;0.80;0.80;;;18.50;44.00;;;;;;5031064;28;20225;-60
2023/04/26 00:21:42;;;;;;;1.20;1.10;;;18.50;44.00;;;;;;5032549;28;20222;-60
2023/04/26 00:24:08;;;;;;;1.10;1.00;;;18.50;44.00;;;;;;5026912;28;20640;-60
2023/04/26 00:26:34;;;;;;;1.07;0.97;;;18.50;44.00;;;;;;5023883;28;20261;-65
2023/04/26 00:29:00;;;;;;;1.63;0.90;;;18.50;44.00;;;;;;5022117;28;20284;-59
2023/04/26 00:31:26;;;;;;;1.10;1.00;;;18.50;44.00;;;;;;5030855;28;20434;-61
2023/04/26 00:33:52;;;;;;;0.93;0.90;;;18.50;44.00;;;;;;5028376;28;20475;-60
2023/04/26 00:36:18;;;;;;;1.13;1.03;;;18.50;44.00;;;;;;5024585;28;20565;-60
2023/04/26 00:38:47;;;;;;;1.00;0.90;;;18.50;44.00;;;;;;5023845;28;20703;-63
2023/04/26 00:41:13;;;;;;;1.10;1.00;;;18.50;44.00;;;;;;5021466;28;20438;-61
2023/04/26 00:43:39;;;;;;;0.90;0.90;;;18.50;44.00;;;;;;5022408;28;20459;-62
2023/04/26 00:46:07;;;;;;;0.97;0.90;;;18.50;44.00;;;;;;5026579;28;20444;-59
2023/04/26 00:48:33;;;;;;;0.90;0.80;;;18.50;44.00;;;;;;5025177;28;20434;-59
2023/04/26 00:51:00;;;;;;;1.03;0.93;;;18.50;44.00;;;;;;5027815;28;21262;-61
2023/04/26 00:53:26;;;;;;;1.00;0.90;;;18.50;44.00;;;;;;5027544;28;20242;-62
2023/04/26 00:55:52;;;;;;;1.27;1.17;;;18.50;44.00;;;;;;5029470;28;20477;-59
2023/04/26 00:58:18;;;;;;;2.13;1.00;;;18.50;44.00;;;;;;5031102;28;20305;-62
2023/04/26 01:00:43;;;;;;;1.10;1.00;;;18.50;44.00;;;;;;5021950;28;20488;-61
2023/04/26 01:03:10;;;;;;;1.20;1.10;;;18.50;44.00;;;;;;5028848;28;20230;-63
2023/04/26 01:05:37;;;;;;;1.30;1.00;;;18.50;44.00;;;;;;5029820;28;20234;-66
2023/04/26 01:08:03;;;;;;;0.90;0.90;;;18.50;44.00;;;;;;5030663;28;20421;-61
2023/04/26 01:10:33;;;;;;;1.03;0.93;;;18.50;44.00;;;;;;5026384;28;20449;-62
2023/04/26 01:12:59;;;;;;;1.10;1.00;;;18.50;44.00;;;;;;5031472;28;22842;-61
2023/04/26 01:15:29;;;;;;;1.00;0.90;;;18.50;44.00;;;;;;5018283;28;21293;-60
2023/04/26 01:17:56;;;;;;;1.63;1.53;;;18.50;44.00;;;;;;5029026;28;20563;-61
2023/04/26 01:20:22;;;;;;;1.00;0.90;;;18.50;44.10;;;;;;5031038;28;21003;-62
2023/04/26 01:22:47;;;;;;;1.40;1.07;;;18.50;44.00;;;;;;5032174;28;20459;-62
2023/04/26 01:25:13;;;;;;;1.20;1.10;;;18.50;44.00;;;;;;5026597;28;20226;-65
2023/04/26 01:27:40;;;;;;;1.20;1.00;;;18.50;44.00;;;;;;5028826;28;20254;-64
2023/04/26 01:30:07;;;;;;;1.00;0.90;;;18.50;44.00;;;;;;5030802;28;20425;-59
2023/04/26 01:32:33;;;;;;;1.00;1.00;;;18.50;44.00;;;;;;5028162;28;20507;-63
2023/04/26 01:34:59;;;;;;;1.20;1.10;;;18.50;44.00;;;;;;5028489;28;21265;-60
2023/04/26 01:37:25;;;;;;;1.47;1.37;;;18.50;44.00;;;;;;5026555;28;20586;-63
2023/04/26 01:39:51;;;;;;;1.27;1.17;;;18.50;44.00;;;;;;5027916;28;20330;-62
2023/04/26 01:42:17;;;;;;;1.63;1.10;;;18.50;44.00;;;;;;5020901;28;20233;-65
2023/04/26 01:44:42;;;;;;;1.30;1.20;;;18.50;44.00;;;;;;5027504;28;20574;-59
2023/04/26 01:47:07;;;;;;;1.30;1.00;;;18.50;44.00;;;;;;5011960;28;20308;-59
2023/04/26 01:49:33;;;;;;;1.20;1.10;;;18.50;44.00;;;;;;5028811;28;20236;-60
2023/04/26 01:52:00;;;;;;;2.40;1.00;;;18.50;44.00;;;;;;5027957;28;21140;-61
2023/04/26 01:54:25;;;;;;;1.10;1.00;;;18.50;44.00;;;;;;5034006;28;20702;-61
2023/04/26 01:56:51;;;;;;;1.30;1.20;;;18.50;44.00;;;;;;5032788;28;20441;-60
2023/04/26 01:59:16;;;;;;;1.33;1.20;;;18.50;44.00;;;;;;5028929;28;20221;-62
2023/04/26 02:01:42;;;;;;;1.10;1.00;;;18.50;44.00;;;;;;5018042;28;20234;-61
2023/04/26 02:04:08;;;;;;;1.50;1.20;;;18.50;44.00;;;;;;5016208;28;20237;-63
2023/04/26 02:06:33;;;;;;;1.13;1.03;;;18.50;44.00;;;;;;5028962;28;20690;-59
2023/04/26 02:08:59;;;;;;;1.00;0.90;;;18.50;44.00;;;;;;5026839;28;20318;-62
2023/04/26 02:11:25;;;;;;;1.00;0.90;;;18.50;44.00;;;;;;5030687;28;20305;-62
2023/04/26 02:13:52;;;;;;;1.13;1.03;;;18.50;44.00;;;;;;5031533;28;20254;-62
2023/04/26 02:16:17;;;;;;;0.87;0.87;;;18.50;44.00;;;;;;5029158;28;20993;-64
2023/04/26 02:18:43;;;;;;;1.20;1.10;;;18.50;43.90;;;;;;5029507;28;20461;-59
2023/04/26 02:21:10;;;;;;;1.07;1.00;;;18.50;44.00;;;;;;5032613;28;20694;-59
2023/04/26 02:23:36;;;;;;;1.10;1.00;;;18.50;44.00;;;;;;5032149;28;20233;-62
2023/04/26 02:26:02;;;;;;;1.03;0.93;;;18.50;44.00;;;;;;5026445;28;20414;-60
2023/04/26 02:28:27;;;;;;;1.10;1.00;;;18.50;44.00;;;;;;5031024;28;20310;-60
2023/04/26 02:30:53;;;;;;;1.10;1.00;;;18.50;44.00;;;;;;5029607;28;21276;-60
2023/04/26 02:33:18;;;;;;;1.20;1.10;;;18.40;43.90;;;;;;5024970;28;20225;-64
2023/04/26 02:35:44;;;;;;;1.10;1.00;;;18.50;44.00;;;;;;5018258;28;20446;-61
2023/04/26 02:38:10;;;;;;;1.03;0.97;;;18.40;43.90;;;;;;5018252;28;20220;-63
2023/04/26 02:40:35;;;;;;;1.20;1.10;;;18.50;43.90;;;;;;5029684;28;20230;-64
2023/04/26 02:43:01;;;;;;;1.20;1.10;;;18.50;43.90;;;;;;5027027;28;20866;-62
2023/04/26 02:45:26;;;;;;;1.20;1.10;;;18.50;43.90;;;;;;5019047;28;20225;-60
2023/04/26 02:47:52;;;;;;;1.30;1.20;;;18.50;43.90;;;;;;5026711;28;20221;-63
2023/04/26 02:50:17;;;;;;;1.10;1.00;;;18.50;44.00;;;;;;5014934;28;20229;-62
2023/04/26 02:52:43;;;;;;;1.10;1.00;;;18.50;43.90;;;;;;5029534;28;20855;-60
2023/04/26 02:55:09;;;;;;;1.10;1.00;;;18.50;43.90;;;;;;5025280;28;20261;-62
2023/04/26 02:57:34;;;;;;;1.20;1.10;;;18.50;43.80;;;;;;5022994;28;20218;-61
2023/04/26 03:00:00;;;;;;;1.20;1.10;;;18.40;43.80;;;;;;5023086;28;20243;-64
2023/04/26 03:02:25;;;;;;;1.20;1.10;;;18.40;43.90;;;;;;5013895;28;20271;-61
2023/04/26 03:04:51;;;;;;;1.33;1.23;;;18.40;43.80;;;;;;5016282;28;20230;-60
2023/04/26 03:07:16;;;;;;;1.03;1.00;;;18.50;44.00;;;;;;5028727;28;20678;-62
2023/04/26 03:09:42;;;;;;;1.40;1.20;;;18.40;43.90;;;;;;5026465;28;20778;-64
2023/04/26 03:12:08;;;;;;;1.20;1.10;;;18.40;43.80;;;;;;5029223;28;20223;-60
2023/04/26 03:14:34;;;;;;;1.20;1.10;;;18.40;43.80;;;;;;5021500;28;20241;-63
2023/04/26 03:17:00;;;;;;;1.30;1.20;;;18.40;44.60;;;;;;5003651;28;20414;-65
2023/04/26 03:19:27;;;;;;;1.07;1.03;;;18.40;43.90;;;;;;5014408;28;20446;-60
2023/04/26 03:21:53;;;;;;;1.10;1.00;;;18.40;43.80;;;;;;5005867;28;20445;-62
2023/04/26 03:24:19;;;;;;;1.40;1.23;;;18.40;43.80;;;;;;5001171;28;20522;-65
2023/04/26 03:26:44;;;;;;;3.93;1.10;;;18.40;43.80;;;;;;5007244;28;20448;-64
2023/04/26 03:29:11;;;;;;;1.20;1.10;;;18.40;43.90;;;;;;5016556;28;20234;-62
2023/04/26 03:31:37;;;;;;;1.30;1.20;;;18.50;43.90;;;;;;5013534;28;20234;-62
2023/04/26 03:34:03;;;;;;;1.20;1.10;;;18.40;43.80;;;;;;5008329;28;20454;-63
2023/04/26 03:36:28;;;;;;;1.10;0.97;;;18.50;43.90;;;;;;5035515;28;20430;-60
2023/04/26 03:38:54;;;;;;;1.30;1.17;;;18.40;43.80;;;;;;5026168;28;20272;-60
2023/04/26 03:41:23;;;;;;;1.10;1.00;;;18.40;43.80;;;;;;5008362;28;20900;-61
2023/04/26 03:43:49;;;;;;;2.33;1.50;;;18.40;43.70;;;;;;5016393;28;20225;-65
2023/04/26 03:46:15;;;;;;;1.00;1.00;;;18.40;43.80;;;;;;5025122;28;20460;-61
2023/04/26 03:48:40;;;;;;;1.10;1.00;;;18.40;43.80;;;;;;5027314;28;20686;-63
2023/04/26 03:51:06;;;;;;;1.17;1.07;;;18.40;43.80;;;;;;5009650;28;20234;-64
2023/04/26 03:53:32;;;;;;;1.30;1.20;;;18.40;43.80;;;;;;5011758;28;20329;-63
2023/04/26 03:55:57;;;;;;;1.10;1.00;;;18.40;43.80;;;;;;5008845;28;20227;-66
2023/04/26 03:58:24;;;;;;;0.90;0.90;;;18.40;43.80;;;;;;5014659;28;20310;-60
2023/04/26 04:00:50;;;;;;;1.00;0.90;;;18.40;43.80;;;;;;5005827;28;20865;-64
2023/04/26 04:03:16;;;;;;;1.10;1.00;;;18.40;43.80;;;;;;5010746;28;20443;-64
2023/04/26 04:05:42;;;;;;;0.93;0.93;;;18.40;43.80;;;;;;5019290;28;20218;-60
2023/04/26 04:08:08;;;;;;;1.20;1.10;;;18.40;43.80;;;;;;5006518;28;20442;-63
2023/04/26 04:10:33;;;;;;;1.30;1.10;;;18.40;43.80;;;;;;5006385;28;20227;-65
2023/04/26 04:12:59;;;;;;;1.20;1.10;;;18.40;43.80;;;;;;5007869;28;20233;-63
2023/04/26 04:15:25;;;;;;;1.20;1.10;;;18.40;43.80;;;;;;5004428;28;20318;-65
2023/04/26 04:17:51;;;;;;;1.20;1.10;;;18.40;43.80;;;;;;5021638;28;20635;-61
2023/04/26 04:20:17;;;;;;;1.40;1.30;;;18.40;43.80;;;;;;5022463;28;20474;-59
2023/04/26 04:22:42;;;;;;;1.63;1.30;;;18.40;43.80;;;;;;5017428;28;20222;-59
2023/04/26 04:25:12;;;;;;;1.30;1.20;;;18.40;43.80;;;;;;5008358;28;20265;-66
2023/04/26 04:27:41;;;;;;;1.20;1.10;;;18.40;43.80;;;;;;5008359;28;20593;-63
2023/04/26 04:30:07;;;;;;;1.73;1.30;;;18.40;43.80;;;;;;5022298;28;20850;-62
2023/04/26 04:32:34;;;;;;;1.20;1.10;;;18.40;43.80;;;;;;5024182;28;20429;-66
2023/04/26 04:35:00;;;;;;;1.40;1.30;;;18.40;43.80;;;;;;5020309;28;20484;-69
2023/04/26 04:37:26;;;;;;;1.30;1.20;;;18.40;43.80;;;;;;5014199;28;20470;-67
2023/04/26 04:39:52;;;;;;;1.10;1.00;;;18.40;43.80;;;;;;5011307;28;20803;-61
2023/04/26 04:42:17;;;;;;;1.30;1.20;;;18.40;43.80;;;;;;5009766;28;20246;-63
2023/04/26 04:44:44;;;;;;;1.30;1.20;;;18.40;43.80;;;;;;5016123;28;20226;-62
2023/04/26 04:47:10;;;;;;;1.23;1.13;;;18.40;43.70;;;;;;5007285;28;20704;-62
2023/04/26 04:49:36;;;;;;;1.13;1.03;;;18.40;43.70;;;;;;5022579;28;21710;-59
2023/04/26 04:52:02;;;;;;;1.43;1.33;;;18.40;43.80;;;;;;5024252;28;20500;-64
2023/04/26 04:54:28;;;;;;;1.27;1.17;;;18.40;43.80;;;;;;5025750;28;20561;-60
2023/04/26 04:56:53;;;;;;;2.13;1.50;;;18.40;43.70;;;;;;5027075;28;20589;-64
2023/04/26 04:59:19;;;;;;;3.43;1.00;;;18.40;43.60;;;;;;5028984;28;20222;-63
2023/04/26 05:01:45;;;;;;;1.10;1.00;;;18.40;43.60;;;;;;5025303;28;20971;-63
2023/04/26 05:04:10;;;;;;;1.20;1.10;;;18.50;43.70;;;;;;5019816;28;20287;-65
2023/04/26 05:06:36;;;;;;;1.20;1.10;;;18.50;43.60;;;;;;5020157;28;20222;-61
2023/04/26 05:09:04;;;;;;;1.70;1.17;;;18.50;43.60;;;;;;5023005;28;20222;-59
2023/04/26 05:11:30;;;;;;;1.53;1.43;;;18.50;43.60;;;;;;5026806;28;23097;-60
2023/04/26 05:13:56;;;;;;;1.20;1.10;;;18.50;43.60;;;;;;5024510;28;20446;-60
2023/04/26 05:16:21;;;;;;;1.40;1.30;;;18.50;43.50;;;;;;5025079;28;20927;-59
2023/04/26 05:18:47;;;;;;;1.50;1.20;;;18.50;43.50;;;;;;5015942;28;20682;-60
2023/04/26 05:21:12;;;;;;;1.50;1.40;;;18.50;43.50;;;;;;5022125;28;20363;-60
2023/04/26 05:23:38;;;;;;;1.33;1.10;;;18.50;43.50;;;;;;5022822;28;20230;-62
2023/04/26 05:26:05;;;;;;;1.40;1.30;;;18.50;43.60;;;;;;5025006;28;20226;-62
2023/04/26 05:28:30;;;;;;;1.30;1.20;;;18.50;43.50;;;;;;5008989;28;21334;-64
2023/04/26 05:30:56;;;;;;;3.90;2.23;;;18.50;43.50;;;;;;5023555;28;20444;-62
2023/04/26 05:33:21;;;;;;;3.20;2.90;;;18.50;43.40;;;;;;5027531;28;20322;-62
2023/04/26 05:35:47;;;;;;;1.40;1.30;;;18.50;43.40;;;;;;5026987;28;20324;-64
2023/04/26 05:38:13;;;;;;;1.50;1.40;;;18.50;43.40;;;;;;5027368;28;20218;-64
2023/04/26 05:40:39;;;;;;;2.63;1.40;;;18.50;43.40;;;;;;5030215;28;20280;-62
2023/04/26 05:43:05;;;;;;;1.43;1.33;;;18.50;43.30;;;;;;5030371;28;20738;-64
2023/04/26 05:45:30;;;;;;;1.30;1.20;;;18.50;43.40;;;;;;5032542;28;20237;-64
2023/04/26 05:47:56;;;;;;;1.70;1.60;;;18.50;43.40;;;;;;5031332;28;20727;-64
2023/04/26 05:50:21;;;;;;;1.63;1.53;;;18.50;43.40;;;;;;5028477;28;20229;-60
2023/04/26 05:52:47;;;;;;;1.27;1.10;;;18.50;43.40;;;;;;5031107;28;20245;-60
2023/04/26 05:55:12;;;;;;;1.30;1.20;;;18.50;43.30;;;;;;5030811;28;20289;-61
2023/04/26 05:57:38;;;;;;;1.40;1.30;;;18.50;43.40;;;;;;5024828;28;20273;-60
2023/04/26 06:00:05;;;;;;;1.30;1.20;;;18.50;43.30;;;;;;5030323;28;20689;-61
2023/04/26 06:02:30;;;;;;;1.50;1.40;;;18.50;43.30;;;;;;5028674;28;20466;-61
2023/04/26 06:04:56;;;;;;;1.50;1.40;;;18.50;43.40;;;;;;5022055;28;20468;-65
2023/04/26 06:07:22;;;;;;;1.30;1.20;;;18.50;43.40;;;;;;5026543;28;20739;-61
2023/04/26 06:09:47;;;;;;;1.40;1.30;;;18.50;43.40;;;;;;5020103;28;20710;-60
2023/04/26 06:12:13;;;;;;;1.40;1.30;;;18.50;43.40;;;;;;5017949;28;20222;-63
2023/04/26 06:14:38;;;;;;;3.23;1.53;;;18.50;43.40;;;;;;5029282;28;20287;-63
2023/04/26 06:17:04;;;;;;;1.60;1.50;;;18.50;43.40;;;;;;5028304;28;20228;-60
2023/04/26 06:19:30;;;;;;;1.33;1.23;;;18.50;43.40;;;;;;5031984;28;20264;-61
2023/04/26 06:21:56;;;;;;;1.43;1.33;;;18.50;43.40;;;;;;5028106;28;20217;-62
2023/04/26 06:24:22;;;;;;;2.80;1.40;;;18.50;43.40;;;;;;5032139;28;20222;-61
2023/04/26 06:26:48;;;;;;;1.27;1.17;;;18.50;43.30;;;;;;5025115;28;20624;-63
2023/04/26 06:29:13;;;;;;;1.30;1.20;;;18.50;43.30;;;;;;5024816;28;20431;-63
2023/04/26 06:31:39;;;;;;;1.20;1.10;;;18.50;43.30;;;;;;5034568;28;20295;-61
2023/04/26 06:34:04;;;;;;;1.57;1.40;;;18.50;43.40;;;;;;5030258;28;20253;-62
2023/04/26 06:36:30;;;;;;;2.10;1.43;;;18.50;43.30;;;;;;5025983;28;20231;-65
2023/04/26 06:38:55;;;;;;;1.30;1.20;;;18.50;43.40;;;;;;5028286;28;20229;-68
2023/04/26 06:41:21;;;;;;;1.50;1.40;;;18.50;43.40;;;;;;5030083;28;20280;-61
2023/04/26 06:43:47;;;;;;;3.33;1.80;;;18.50;43.40;;;;;;5028068;28;20234;-60
2023/04/26 06:46:13;;;;;;;1.30;1.20;;;18.50;43.40;;;;;;5029872;28;20745;-64
2023/04/26 06:48:38;;;;;;;2.00;1.70;;;18.50;43.40;;;;;;5027203;28;20454;-63
2023/04/26 06:51:05;;;;;;;1.30;1.20;;;18.50;43.40;;;;;;5002989;28;20227;-64
2023/04/26 06:53:31;;;;;;;1.40;1.30;;;18.50;43.40;;;;;;5027020;28;20234;-62
2023/04/26 06:55:57;;;;;;;2.10;1.30;;;18.50;43.40;;;;;;5026254;28;20434;-60
2023/04/26 06:58:22;;;;;;;1.50;1.33;;;18.50;43.40;;;;;;5023982;28;20848;-61
2023/04/26 07:00:48;;;;;;;1.63;1.40;;;18.50;43.40;;;;;;5021895;28;20218;-65
2023/04/26 07:03:13;;;;;;;1.67;1.33;;;18.50;44.00;;;;;;5030905;28;20310;-63
2023/04/26 07:05:39;;;;;;;1.50;1.40;;;18.50;43.40;;;;;;5030015;28;20588;-61
2023/04/26 07:08:05;;;;;;;1.50;1.40;;;18.50;43.40;;;;;;5034784;28;20241;-66
2023/04/26 07:10:31;;;;;;;1.27;1.17;;;18.50;43.40;;;;;;5031380;28;20927;-60
2023/04/26 07:12:56;;;;;;;1.30;1.20;;;18.50;43.40;;;;;;5031284;28;20225;-63
2023/04/26 07:15:22;;;;;;;1.37;1.27;;;18.50;43.40;;;;;;5033631;28;20676;-61
2023/04/26 07:17:47;;;;;;;1.20;1.10;;;18.50;43.40;;;;;;5033805;28;20222;-67
2023/04/26 07:20:18;;;;;;;2.60;1.37;;;18.50;43.40;;;;;;5033459;28;20222;-61
2023/04/26 07:22:44;;;;;;;1.33;1.20;;;18.50;43.40;;;;;;5030575;28;20226;-62
2023/04/26 07:25:10;;;;;;;1.40;1.30;;;18.50;43.40;;;;;;5034813;28;20439;-63
2023/04/26 07:27:35;;;;;;;2.27;1.40;;;18.50;43.40;;;;;;5023906;28;20585;-63
2023/04/26 07:30:01;;;;;;;1.90;1.70;;;18.50;43.40;;;;;;5031347;28;20460;-61
2023/04/26 07:32:26;;;;;;;2.23;1.40;;;18.50;43.40;;;;;;5029592;28;20223;-61
2023/04/26 07:34:52;;;;;;;1.53;1.43;;;18.50;43.40;;;;;;5027129;28;20238;-63
2023/04/26 07:37:18;;;;;;;1.20;1.10;;;18.50;43.40;;;;;;5014273;28;20227;-62
2023/04/26 07:39:43;;;;;;;1.57;1.47;;;18.50;43.40;;;;;;5024914;28;20237;-60
2023/04/26 07:42:09;;;;;;;2.17;1.47;;;18.50;43.40;;;;;;5031251;28;20222;-66
2023/04/26 07:44:34;;;;;;;1.30;1.20;;;18.50;43.40;;;;;;5033111;28;20234;-61
2023/04/26 07:47:00;;;;;;;2.07;1.33;;;18.50;43.40;;;;;;5030344;28;20223;-61
2023/04/26 07:49:25;;;;;;;1.50;1.40;;;18.50;43.40;;;;;;5032295;28;20222;-63
2023/04/26 07:51:51;;;;;;;1.37;1.27;;;18.50;43.40;;;;;;5030528;28;20343;-62
2023/04/26 07:54:16;;;;;;;1.37;1.27;;;18.50;43.40;;;;;;5033075;28;21164;-60
2023/04/26 07:56:42;;;;;;;1.30;1.20;;;18.50;43.40;;;;;;5029937;28;20734;-61
2023/04/26 07:59:07;;;;;;;1.40;1.30;;;18.50;43.40;;;;;;5033535;28;20226;-61
2023/04/26 08:01:33;;;;;;;1.40;1.30;;;18.50;43.40;;;;;;5032304;28;21044;-63
2023/04/26 08:03:58;;;;;;;1.30;1.20;;;18.50;44.10;;;;;;5035693;28;20249;-60
2023/04/26 08:06:24;;;;;;;5.90;1.47;;;18.50;43.40;;;;;;5029920;28;20225;-62
2023/04/26 08:08:51;;;;;;;2.90;1.30;;;18.50;43.40;;;;;;5030816;28;20230;-64
2023/04/26 08:11:17;;;;;;;1.30;1.20;;;18.50;43.40;;;;;;5031490;28;20219;-62
2023/04/26 08:13:42;;;;;;;2.37;2.17;;;18.50;43.40;;;;;;5035126;28;20488;-61
2023/04/26 08:16:08;;;;;;;1.40;1.30;;;18.50;43.40;;;;;;5031997;28;20308;-61
2023/04/26 08:18:34;;;;;;;1.30;1.20;;;18.50;43.40;;;;;;5030047;28;20257;-61
2023/04/26 08:21:00;;;;;;;1.10;1.00;;;18.50;43.40;;;;;;5031361;28;20271;-60
2023/04/26 08:23:25;;;;;;;2.03;1.20;;;18.50;43.40;;;;;;5031271;28;20376;-62
2023/04/26 08:25:51;;;;;;;1.40;1.30;;;18.50;43.40;;;;;;5031278;28;20298;-62
2023/04/26 08:28:16;;;;;;;1.13;1.10;;;18.50;43.40;;;;;;5033560;28;20570;-61
2023/04/26 08:30:42;;;;;;;1.17;1.07;;;18.50;43.40;;;;;;5025593;28;20233;-63
2023/04/26 08:33:08;;;;;;;1.97;1.30;;;18.50;43.40;;;;;;5030572;28;20230;-63
2023/04/26 08:35:34;;;;;;;1.20;1.10;;;18.50;43.40;;;;;;5028355;28;22180;-61
2023/04/26 08:38:00;;;;;;;1.40;1.30;;;18.50;43.40;;;;;;5026846;28;21614;-61
2023/04/26 08:40:25;;;;;;;1.57;1.47;;;18.50;43.40;;;;;;5030491;28;20222;-61
2023/04/26 08:42:52;;;;;;;1.30;1.20;;;18.50;43.40;;;;;;5020650;28;20687;-65
2023/04/26 08:45:20;;;;;;;1.80;1.20;;;18.50;43.40;;;;;;5030163;28;20222;-60
2023/04/26 08:47:49;;;;;;;1.60;1.37;;;18.50;43.40;;;;;;5019221;28;20500;-65
2023/04/26 08:50:21;;;;;;;1.20;1.10;;;18.50;43.30;;;;;;5030685;28;20470;-62
2023/04/26 08:52:49;;;;;;;1.20;1.10;;;18.50;43.40;;;;;;5023059;28;20873;-60
2023/04/26 08:55:16;;;;;;;1.40;1.30;;;18.50;43.40;;;;;;5029929;28;20908;-62
2023/04/26 08:57:44;;;;;;;2.37;1.50;;;18.50;43.40;;;;;;5030964;28;20451;-62
2023/04/26 09:00:14;;;;;;;1.40;1.30;;;18.50;43.40;;;;;;5030288;28;21533;-63
2023/04/26 09:02:44;;;;;;;1.57;1.47;;;18.50;43.40;;;;;;5031179;28;20485;-63
2023/04/26 09:05:10;;;;;;;1.30;1.20;;;18.50;43.40;;;;;;5031295;28;20525;-65
2023/04/26 09:07:44;;;;;;;1.30;1.20;;;18.50;43.40;;;;;;5021589;28;20525;-63
2023/04/26 09:10:11;;;;;;;1.30;1.20;;;18.50;43.40;;;;;;5028281;28;20494;-63
2023/04/26 09:12:38;;;;;;;1.50;1.40;;;18.50;43.40;;;;;;5020600;28;20906;-62
2023/04/26 09:15:08;;;;;;;1.20;1.10;;;18.50;43.40;;;;;;5029096;28;20561;-62
2023/04/26 09:17:38;;;;;;;1.20;1.00;;;18.50;43.30;;;;;;5029339;28;20562;-63
2023/04/26 09:20:26;;;;;;;1.30;1.20;;;18.50;43.40;;;;;;5029035;28;20540;-60
2023/04/26 09:23:12;;;;;;;1.40;1.30;;;18.50;43.40;;;;;;5032683;28;20467;-62
2023/04/26 09:25:38;;;;;;;1.20;1.10;;;18.50;43.40;;;;;;5029975;28;20445;-60
2023/04/26 09:28:17;;;;;;;1.40;1.30;;;18.50;43.40;;;;;;5029720;28;20451;-60
2023/04/26 09:30:42;;;;;;;1.33;1.10;;;18.50;43.30;;;;;;5030224;28;20218;-60
2023/04/26 09:33:08;;;;;;;1.50;1.40;;;18.50;43.40;;;;;;5021842;28;20490;-66
2023/04/26 09:35:41;;;;;;;1.20;1.10;;;18.50;43.40;;;;;;5032114;28;20284;-63
2023/04/26 09:38:15;;;;;;;1.27;1.17;;;18.50;43.40;;;;;;5008421;28;20216;-63
2023/04/26 09:40:42;;;;;;;1.70;1.07;;;18.50;43.40;;;;;;5007556;28;20487;-62
2023/04/26 09:43:08;;;;;;;1.23;1.13;;;18.50;43.40;;;;;;5025918;28;20772;-63
2023/04/26 09:45:44;;;;;;;1.50;1.40;;;18.50;43.40;;;;;;5031685;28;20434;-60
2023/04/26 09:48:36;;;;;;;1.67;1.20;;;18.50;43.40;;;;;;5024582;28;20430;-65
2023/04/26 09:51:01;;;;;;;1.77;1.20;;;18.50;43.40;;;;;;5030685;28;20494;-60
2023/04/26 09:53:33;;;;;;;1.10;1.00;;;18.50;43.40;;;;;;5031524;28;22103;-62
2023/04/26 09:56:25;;;;;;;1.40;1.30;;;18.50;43.40;;;;;;5029086;28;20242;-60
2023/04/26 09:58:52;;;;;;;4.10;1.17;;;18.50;43.40;;;;;;5030244;28;20445;-64
2023/04/26 10:01:18;;;;;;;1.60;1.50;;;18.50;43.40;;;;;;5029795;28;20943;-61
2023/04/26 10:03:45;;;;;;;1.30;1.20;;;18.50;43.40;;;;;;5029220;28;20234;-61
2023/04/26 10:06:14;;;;;;;1.30;1.20;;;18.50;43.40;;;;;;5025818;28;20441;-62
2023/04/26 10:08:40;;;;;;;1.20;1.10;;;18.50;43.40;;;;;;5025745;28;20436;-63
2023/04/26 10:11:10;;;;;;;1.37;1.27;;;18.50;43.40;;;;;;5030237;28;20421;-62
2023/04/26 10:13:36;;;;;;;1.20;1.10;;;18.50;43.40;;;;;;5030446;28;20225;-63
2023/04/26 10:16:02;;;;;;;1.23;1.13;;;18.50;43.40;;;;;;5022801;28;20433;-60
2023/04/26 10:18:29;;;;;;;1.00;1.00;;;18.50;43.40;;;;;;5029757;28;21278;-62
2023/04/26 10:20:59;;;;;;;1.30;1.20;;;18.50;43.40;;;;;;5030820;28;20462;-63
2023/04/26 10:23:26;;;;;;;1.30;1.20;;;18.50;43.40;;;;;;5030576;28;20471;-62
2023/04/26 10:25:52;;;;;;;1.03;1.03;;;18.50;43.40;;;;;;5017179;28;20513;-64
2023/04/26 10:28:44;;;;;;;1.30;1.20;;;18.50;43.40;;;;;;5028723;28;21126;-62
2023/04/26 10:31:10;;;;;;;1.67;1.00;;;18.50;43.30;;;;;;5031096;28;20459;-60
2023/04/26 10:33:36;;;;;;;1.17;1.07;;;18.50;43.40;;;;;;5009542;28;20455;-66
2023/04/26 10:36:11;;;;;;;1.53;1.17;;;18.50;44.10;;;;;;5022356;28;20463;-61
2023/04/26 10:38:41;;;;;;;1.27;1.17;;;18.50;43.40;;;;;;5029952;28;20232;-60
2023/04/26 10:41:30;;;;;;;1.00;1.00;;;18.50;43.40;;;;;;5030263;28;20441;-60
2023/04/26 10:43:56;;;;;;;1.73;1.23;;;18.50;43.40;;;;;;5029553;28;20919;-63
2023/04/26 10:46:35;;;;;;;1.10;1.00;;;18.50;43.40;;;;;;5026239;28;20532;-60
2023/04/26 10:49:24;;;;;;;1.07;1.00;;;18.50;43.40;;;;;;5033711;28;20557;-65
2023/04/26 10:52:12;;;;;;;1.20;1.10;;;18.50;43.30;;;;;;5029800;28;20548;-62
2023/04/26 10:55:09;;;;;;;1.00;0.93;;;18.50;43.40;;;;;;5034730;28;20523;-62
2023/04/26 10:57:51;;;;;;;1.20;1.10;;;18.50;43.40;;;;;;5025607;28;20434;-61
2023/04/26 11:00:19;;;;;;;1.30;1.20;;;18.40;43.30;;;;;;5035920;28;20987;-63
2023/04/26 11:02:52;;;;;;;1.20;1.10;;;18.50;43.40;;;;;;5033537;28;20459;-64
2023/04/26 11:05:39;;;;;;;1.10;1.00;;;18.50;44.20;;;;;;5031088;28;20552;-60
2023/04/26 11:08:17;;;;;;;1.20;1.10;;;18.50;43.40;;;;;;5023558;28;20482;-63
2023/04/26 11:10:48;;;;;;;1.40;1.10;;;18.50;43.40;;;;;;5025076;28;20504;-63
2023/04/26 11:13:14;;;;;;;1.30;1.20;;;18.50;43.40;;;;;;5029679;28;20491;-62
2023/04/26 11:15:40;;;;;;;1.20;1.10;;;18.50;43.30;;;;;;5025968;28;21739;-63
2023/04/26 11:18:05;;;;;;;1.30;1.20;;;18.50;43.40;;;;;;5023807;28;20490;-64
2023/04/26 11:20:32;;;;;;;1.30;1.20;;;18.50;43.40;;;;;;5023623;28;20268;-61
2023/04/26 11:22:58;;;;;;;1.60;1.10;;;18.50;43.40;;;;;;5022587;28;20226;-61
2023/04/26 11:25:26;;;;;;;1.20;1.10;;;18.50;43.40;;;;;;5023236;28;20455;-62
2023/04/26 11:27:56;;;;;;;1.20;1.10;;;18.50;43.30;;;;;;5031242;28;20461;-66
2023/04/26 11:30:22;;;;;;;0.97;0.93;;;18.50;43.40;;;;;;5031221;28;20466;-62
2023/04/26 11:32:47;;;;;;;1.63;1.00;;;18.50;43.40;;;;;;5034186;28;20459;-61
2023/04/26 11:35:14;;;;;;;1.73;1.30;;;18.50;43.40;;;;;;5031720;28;20233;-61
2023/04/26 11:37:40;;;;;;;1.30;1.20;;;18.50;43.40;;;;;;5033773;28;20226;-63
2023/04/26 11:40:09;;;;;;;1.20;1.10;;;18.50;43.40;;;;;;5034938;28;21083;-62
2023/04/26 11:42:34;;;;;;;1.20;1.10;;;18.50;43.30;;;;;;5031712;28;20226;-61
2023/04/26 11:45:00;;;;;;;1.23;1.13;;;18.50;43.40;;;;;;5042445;28;21313;-62
2023/04/26 11:47:29;;;;;;;1.23;1.20;;;18.50;43.30;;;;;;5032860;28;20225;-62
2023/04/26 11:49:55;;;;;;;1.10;1.00;;;18.50;43.40;;;;;;5024235;28;20678;-61
2023/04/26 11:52:21;;;;;;;1.30;1.20;;;18.50;43.40;;;;;;5035762;28;20490;-64
2023/04/26 11:54:46;;;;;;;1.30;1.20;;;18.40;44.00;;;;;;5030762;28;20253;-67
2023/04/26 11:57:13;;;;;;;1.20;1.10;;;18.50;43.40;;;;;;5031405;28;20325;-62
2023/04/26 11:59:38;;;;;;;1.30;1.20;;;18.50;43.30;;;;;;5036146;28;20233;-63
2023/04/26 12:02:07;;;;;;;1.23;1.13;;;18.50;43.30;;;;;;5031660;28;20437;-63
2023/04/26 12:04:33;;;;;;;1.57;1.20;;;18.40;43.30;;;;;;5033661;28;20271;-62
2023/04/26 12:06:59;;;;;;;1.20;1.10;;;18.40;43.30;;;;;;5032476;28;20466;-64
2023/04/26 12:09:28;;;;;;;1.33;1.23;;;18.40;43.30;;;;;;5026849;28;20246;-61
2023/04/26 12:11:58;;;;;;;1.30;1.20;;;18.50;43.40;;;;;;5023566;28;20242;-62
2023/04/26 12:14:32;;;;;;;1.63;1.13;;;18.50;43.30;;;;;;5019806;28;20472;-66
2023/04/26 12:17:00;;;;;;;1.20;1.10;;;18.50;43.40;;;;;;5028853;28;20446;-62
2023/04/26 12:19:26;;;;;;;1.90;1.20;;;18.50;43.40;;;;;;5021496;28;20478;-64
2023/04/26 12:21:53;;;;;;;1.10;1.00;;;18.40;43.30;;;;;;5027066;28;20544;-63
2023/04/26 12:24:29;;;;;;;2.33;1.20;;;18.40;43.30;;;;;;5027470;28;20214;-64
2023/04/26 12:26:55;;;;;;;1.20;1.10;;;18.50;43.40;;;;;;5029238;28;20464;-64
2023/04/26 12:29:20;;;;;;;1.40;1.30;;;18.50;43.40;;;;;;5030659;28;21050;-62
2023/04/26 12:31:46;;;;;;;1.20;1.10;;;18.50;43.40;;;;;;5031706;28;20852;-65
2023/04/26 12:34:12;;;;;;;1.20;1.10;;;18.40;43.20;;;;;;5030452;28;20283;-63
2023/04/26 12:36:41;;;;;;;1.30;1.17;;;18.40;43.30;;;;;;5021309;28;20217;-62
2023/04/26 12:39:06;;;;;;;1.20;1.10;;;18.50;43.40;;;;;;5022510;28;20249;-63
2023/04/26 12:41:32;;;;;;;1.30;1.20;;;18.40;43.30;;;;;;5033348;28;20441;-63
2023/04/26 12:43:58;;;;;;;1.30;1.20;;;18.50;43.40;;;;;;5034827;28;20570;-62
2023/04/26 12:46:24;;;;;;;1.30;1.20;;;18.50;43.40;;;;;;5036032;28;20218;-63
2023/04/26 12:48:50;;;;;;;0.97;0.97;;;18.50;43.40;;;;;;5034284;28;20271;-64